Carnival Liberty — HPYE — position and weather

sailwx.info

Track history (hours):
 
Tides and Currents Weather Stations Pressure Air Temp Water Temp Dewpoint Dewpoint Depression Visibility Wind Speed Wind Dir Waves Ship Positions

Carnival Liberty

Last reported at 2015-Aug-29 10:23 UTC. Time now 2015-Aug-31 06:41 UTC.
Position N 18°18' W 064°55'.

Type: Ship. MMSI: 371083000.

Date/timePositionNaut miles runAvg speedWind from/ knotsBaromVisibWave heightAir tempDewpointWater temp
2015-Aug-29 10:23N 18°18' W 064°55'7 8.3
2015-Aug-29 09:33N 18°13' W 064°51'29 9.3
2015-Aug-29 06:23N 18°07' W 064°21'7 7.8
2015-Aug-29 05:33N 18°03' W 064°15'36 9.0
2015-Aug-29 01:33N 18°03' W 063°38'9 9.4
2015-Aug-29 00:32N 18°02' W 063°28'10 9.9
2015-Aug-28 23:33N 18°01' W 063°18'1010.0
2015-Aug-28 22:33N 18°01' W 063°07'4 0.4
2015-Aug-28 12:10N 18°01' W 063°03'1 1.4
2015-Aug-28 11:33N 18°00' W 063°04'6 6.3
2015-Aug-28 10:33N 17°59' W 063°10'1616.5
2015-Aug-28 09:33N 17°43' W 063°08'19419.4
2015-Aug-27 23:33N 14°50' W 061°36'2019.6
2015-Aug-27 22:33N 14°33' W 061°26'2019.9
2015-Aug-27 21:33N 14°16' W 061°15'1917.4
2015-Aug-27 20:27N 14°02' W 061°01'2 1.6
2015-Aug-27 19:30N 14°01' W 060°60'0 0.0
2015-Aug-27 18:30N 14°01' W 060°60'0 0.0
2015-Aug-27 17:32N 14°01' W 060°60'0 0.0
2015-Aug-27 16:32N 14°01' W 060°60'0 0.0
2015-Aug-27 15:22N 14°01' W 060°60'0 0.0
2015-Aug-27 14:31N 14°01' W 060°60'0 0.0
2015-Aug-27 13:33N 14°01' W 060°60'0 0.0
2015-Aug-27 12:24N 14°01' W 060°60'0 0.0
2015-Aug-27 11:32N 14°01' W 060°60'0 0.0
2015-Aug-27 10:33N 14°01' W 060°60'7 6.9
2015-Aug-27 09:33N 14°01' W 061°07'49 1.6
2015-Aug-26 02:23N 14°10' W 060°17'7 8.5
2015-Aug-26 01:32N 14°10' W 060°25'8 8.4
2015-Aug-26 00:33N 14°11' W 060°33'9 8.7
2015-Aug-25 23:33N 14°12' W 060°42'8 8.3
2015-Aug-25 22:34N 14°13' W 060°50'8 7.8
2015-Aug-25 21:34N 14°14' W 060°58'7 7.4
2015-Aug-25 20:34N 14°15' W 061°06'8 8.0
2015-Aug-25 19:34N 14°16' W 061°14'9 8.6
2015-Aug-25 18:33N 14°16' W 061°23'9 9.2
2015-Aug-25 17:33N 14°17' W 061°32'8 8.4
2015-Aug-25 16:34N 14°18' W 061°41'8 8.1
2015-Aug-25 15:33N 14°18' W 061°49'69 8.1
2015-Aug-25 07:06N 14°24' W 063°00'23710.5
2015-Aug-24 08:25N 17°49' W 065°03'22 0.8
2015-Aug-23 03:33N 18°09' W 064°52'7318.2
2015-Aug-22 23:32N 18°02' W 063°36'1919.6
2015-Aug-22 22:34N 18°01' W 063°16'1110.8
2015-Aug-22 21:33N 18°00' W 063°04'1 1.2
2015-Aug-22 20:17N 18°01' W 063°03'0 0.0
2015-Aug-22 19:20N 18°01' W 063°03'0 0.0
2015-Aug-22 18:16N 18°01' W 063°03'0 0.0
2015-Aug-22 17:28N 18°01' W 063°03'0 0.0
2015-Aug-22 16:33N 18°01' W 063°03'0 0.0
2015-Aug-22 14:23N 18°01' W 063°03'0 0.0
2015-Aug-22 13:32N 18°01' W 063°03'0 0.0
2015-Aug-22 12:25N 18°01' W 063°03'0 0.0
2015-Aug-22 11:16N 18°01' W 063°03'0 0.0
2015-Aug-22 10:32N 18°01' W 063°03'5 5.4
2015-Aug-22 09:33N 18°00' W 063°08'10 9.6
2015-Aug-22 08:33N 18°03' W 063°18'10 9.7
2015-Aug-22 07:33N 18°06' W 063°28'9 9.2
2015-Aug-22 06:33N 18°09' W 063°37'8 8.1
2015-Aug-22 05:33N 18°01' W 063°39'9 8.8
2015-Aug-22 04:33N 17°59' W 063°30'9 9.2
2015-Aug-22 03:34N 17°56' W 063°21'1010.0
2015-Aug-22 02:33N 17°49' W 063°14'10 9.8
2015-Aug-22 01:34N 17°41' W 063°08'1010.4
2015-Aug-22 00:34N 17°31' W 063°06'57 3.5
2015-Aug-21 08:22N 16°44' W 062°33'12017.6
2015-Aug-21 01:33N 14°57' W 061°37'1716.9
2015-Aug-21 00:33N 14°42' W 061°29'1717.0
2015-Aug-20 23:33N 14°27' W 061°21'1717.1
2015-Aug-20 22:33N 14°12' W 061°13'1513.1
2015-Aug-20 21:24N 14°01' W 061°01'1 1.4
2015-Aug-20 20:32N 14°01' W 060°60'0 0.0
2015-Aug-20 19:28N 14°01' W 060°60'0 0.0
2015-Aug-20 18:28N 14°01' W 060°60'0 0.0
2015-Aug-20 17:33N 14°01' W 060°60'0 0.1
2015-Aug-20 16:21N 14°01' W 060°60'0 0.0
2015-Aug-20 15:32N 14°01' W 060°60'0 0.1
2015-Aug-20 14:33N 14°01' W 060°60'0 0.0
2015-Aug-20 13:27N 14°01' W 060°60'0 0.1
2015-Aug-20 11:22N 14°01' W 060°60'5 6.3
2015-Aug-20 10:32N 14°01' W 061°05'9 9.0
2015-Aug-20 09:33N 13°57' W 061°13'  
Track history (hours):
 
Tides and Currents Weather Stations Pressure Air Temp Water Temp Dewpoint Dewpoint Depression Visibility Wind Speed Wind Dir Waves Ship Positions

Carnival Liberty

Last reported at 2015-Aug-29 10:23 UTC. Time now 2015-Aug-31 06:41 UTC.
Position N 18°18' W 064°55'.

Type: Ship. MMSI: 371083000.

Date/timePositionNaut miles runAvg speedWind from/ knotsBaromVisibWave heightAir tempDewpointWater temp
2015-Aug-29 10:23N 18°18' W 064°55'7 8.3
2015-Aug-29 09:33N 18°13' W 064°51'29 9.3
2015-Aug-29 06:23N 18°07' W 064°21'7 7.8
2015-Aug-29 05:33N 18°03' W 064°15'36 9.0
2015-Aug-29 01:33N 18°03' W 063°38'9 9.4
2015-Aug-29 00:32N 18°02' W 063°28'10 9.9
2015-Aug-28 23:33N 18°01' W 063°18'1010.0
2015-Aug-28 22:33N 18°01' W 063°07'4 0.4
2015-Aug-28 12:10N 18°01' W 063°03'1 1.4
2015-Aug-28 11:33N 18°00' W 063°04'6 6.3
2015-Aug-28 10:33N 17°59' W 063°10'1616.5
2015-Aug-28 09:33N 17°43' W 063°08'19419.4
2015-Aug-27 23:33N 14°50' W 061°36'2019.6
2015-Aug-27 22:33N 14°33' W 061°26'2019.9
2015-Aug-27 21:33N 14°16' W 061°15'1917.4
2015-Aug-27 20:27N 14°02' W 061°01'2 1.6
2015-Aug-27 19:30N 14°01' W 060°60'0 0.0
2015-Aug-27 18:30N 14°01' W 060°60'0 0.0
2015-Aug-27 17:32N 14°01' W 060°60'0 0.0
2015-Aug-27 16:32N 14°01' W 060°60'0 0.0
2015-Aug-27 15:22N 14°01' W 060°60'0 0.0
2015-Aug-27 14:31N 14°01' W 060°60'0 0.0
2015-Aug-27 13:33N 14°01' W 060°60'0 0.0
2015-Aug-27 12:24N 14°01' W 060°60'0 0.0
2015-Aug-27 11:32N 14°01' W 060°60'0 0.0
2015-Aug-27 10:33N 14°01' W 060°60'7 6.9
2015-Aug-27 09:33N 14°01' W 061°07'49 1.6
2015-Aug-26 02:23N 14°10' W 060°17'7 8.5
2015-Aug-26 01:32N 14°10' W 060°25'8 8.4
2015-Aug-26 00:33N 14°11' W 060°33'9 8.7
2015-Aug-25 23:33N 14°12' W 060°42'8 8.3
2015-Aug-25 22:34N 14°13' W 060°50'8 7.8
2015-Aug-25 21:34N 14°14' W 060°58'7 7.4
2015-Aug-25 20:34N 14°15' W 061°06'8 8.0
2015-Aug-25 19:34N 14°16' W 061°14'9 8.6
2015-Aug-25 18:33N 14°16' W 061°23'9 9.2
2015-Aug-25 17:33N 14°17' W 061°32'8 8.4
2015-Aug-25 16:34N 14°18' W 061°41'8 8.1
2015-Aug-25 15:33N 14°18' W 061°49'69 8.1
2015-Aug-25 07:06N 14°24' W 063°00'23710.5
2015-Aug-24 08:25N 17°49' W 065°03'22 0.8
2015-Aug-23 03:33N 18°09' W 064°52'7318.2
2015-Aug-22 23:32N 18°02' W 063°36'1919.6
2015-Aug-22 22:34N 18°01' W 063°16'1110.8
2015-Aug-22 21:33N 18°00' W 063°04'1 1.2
2015-Aug-22 20:17N 18°01' W 063°03'0 0.0
2015-Aug-22 19:20N 18°01' W 063°03'0 0.0
2015-Aug-22 18:16N 18°01' W 063°03'0 0.0
2015-Aug-22 17:28N 18°01' W 063°03'0 0.0
2015-Aug-22 16:33N 18°01' W 063°03'0 0.0
2015-Aug-22 14:23N 18°01' W 063°03'0 0.0
2015-Aug-22 13:32N 18°01' W 063°03'0 0.0
2015-Aug-22 12:25N 18°01' W 063°03'0 0.0
2015-Aug-22 11:16N 18°01' W 063°03'0 0.0
2015-Aug-22 10:32N 18°01' W 063°03'5 5.4
2015-Aug-22 09:33N 18°00' W 063°08'10 9.6
2015-Aug-22 08:33N 18°03' W 063°18'10 9.7
2015-Aug-22 07:33N 18°06' W 063°28'9 9.2
2015-Aug-22 06:33N 18°09' W 063°37'8 8.1
2015-Aug-22 05:33N 18°01' W 063°39'9 8.8
2015-Aug-22 04:33N 17°59' W 063°30'9 9.2
2015-Aug-22 03:34N 17°56' W 063°21'1010.0
2015-Aug-22 02:33N 17°49' W 063°14'10 9.8
2015-Aug-22 01:34N 17°41' W 063°08'1010.4
2015-Aug-22 00:34N 17°31' W 063°06'57 3.5
2015-Aug-21 08:22N 16°44' W 062°33'12017.6
2015-Aug-21 01:33N 14°57' W 061°37'1716.9
2015-Aug-21 00:33N 14°42' W 061°29'1717.0
2015-Aug-20 23:33N 14°27' W 061°21'1717.1
2015-Aug-20 22:33N 14°12' W 061°13'1513.1
2015-Aug-20 21:24N 14°01' W 061°01'1 1.4
2015-Aug-20 20:32N 14°01' W 060°60'0 0.0
2015-Aug-20 19:28N 14°01' W 060°60'0 0.0
2015-Aug-20 18:28N 14°01' W 060°60'0 0.0
2015-Aug-20 17:33N 14°01' W 060°60'0 0.1
2015-Aug-20 16:21N 14°01' W 060°60'0 0.0
2015-Aug-20 15:32N 14°01' W 060°60'0 0.1
2015-Aug-20 14:33N 14°01' W 060°60'0 0.0
2015-Aug-20 13:27N 14°01' W 060°60'0 0.1
2015-Aug-20 11:22N 14°01' W 060°60'5 6.3
2015-Aug-20 10:32N 14°01' W 061°05'9 9.0
2015-Aug-20 09:33N 13°57' W 061°13'  

Dump ship's entire track history